sensor_id;sensor_type;location;lat;lon;timestamp;P1;durP1;ratioP1;P2;durP2;ratioP2
30505;SDS011;17292;51.600;4.994;2023-08-30T00:00:39;5.68;;;2.58;;
30505;SDS011;17292;51.600;4.994;2023-08-30T00:03:06;4.18;;;2.28;;
30505;SDS011;17292;51.600;4.994;2023-08-30T00:05:32;4.00;;;2.50;;
30505;SDS011;17292;51.600;4.994;2023-08-30T00:07:58;3.90;;;2.10;;
30505;SDS011;17292;51.600;4.994;2023-08-30T00:10:24;5.28;;;2.50;;
30505;SDS011;17292;51.600;4.994;2023-08-30T00:12:50;4.45;;;2.05;;
30505;SDS011;17292;51.600;4.994;2023-08-30T00:15:17;3.95;;;1.92;;
30505;SDS011;17292;51.600;4.994;2023-08-30T00:17:43;4.43;;;2.53;;
30505;SDS011;17292;51.600;4.994;2023-08-30T00:20:10;4.90;;;2.17;;
30505;SDS011;17292;51.600;4.994;2023-08-30T00:22:37;4.85;;;2.28;;
30505;SDS011;17292;51.600;4.994;2023-08-30T00:25:04;3.60;;;2.25;;
30505;SDS011;17292;51.600;4.994;2023-08-30T00:27:31;4.25;;;2.10;;
30505;SDS011;17292;51.600;4.994;2023-08-30T00:29:58;2.92;;;2.22;;
30505;SDS011;17292;51.600;4.994;2023-08-30T00:32:24;3.63;;;2.20;;
30505;SDS011;17292;51.600;4.994;2023-08-30T00:34:50;3.95;;;2.30;;
30505;SDS011;17292;51.600;4.994;2023-08-30T00:37:16;7.03;;;2.38;;
30505;SDS011;17292;51.600;4.994;2023-08-30T00:39:43;5.10;;;2.05;;
30505;SDS011;17292;51.600;4.994;2023-08-30T00:42:09;2.22;;;1.90;;
30505;SDS011;17292;51.600;4.994;2023-08-30T00:44:35;3.63;;;2.10;;
30505;SDS011;17292;51.600;4.994;2023-08-30T00:47:01;4.78;;;2.40;;
30505;SDS011;17292;51.600;4.994;2023-08-30T00:49:31;4.28;;;2.22;;
30505;SDS011;17292;51.600;4.994;2023-08-30T00:52:05;3.90;;;2.10;;
30505;SDS011;17292;51.600;4.994;2023-08-30T00:54:32;5.18;;;2.28;;
30505;SDS011;17292;51.600;4.994;2023-08-30T00:56:58;6.30;;;2.13;;
30505;SDS011;17292;51.600;4.994;2023-08-30T00:59:26;5.63;;;2.15;;
30505;SDS011;17292;51.600;4.994;2023-08-30T01:01:53;4.35;;;2.38;;
30505;SDS011;17292;51.600;4.994;2023-08-30T01:04:19;5.00;;;2.35;;
30505;SDS011;17292;51.600;4.994;2023-08-30T01:06:46;4.45;;;2.28;;
30505;SDS011;17292;51.600;4.994;2023-08-30T01:09:14;3.35;;;2.17;;
30505;SDS011;17292;51.600;4.994;2023-08-30T01:14:25;3.00;;;1.88;;
30505;SDS011;17292;51.600;4.994;2023-08-30T01:16:55;3.60;;;2.13;;
30505;SDS011;17292;51.600;4.994;2023-08-30T01:24:37;5.05;;;2.38;;
30505;SDS011;17292;51.600;4.994;2023-08-30T01:27:08;6.05;;;2.33;;
30505;SDS011;17292;51.600;4.994;2023-08-30T01:29:34;5.47;;;2.50;;
30505;SDS011;17292;51.600;4.994;2023-08-30T01:32:03;4.72;;;2.17;;
30505;SDS011;17292;51.600;4.994;2023-08-30T01:34:31;3.55;;;2.28;;
30505;SDS011;17292;51.600;4.994;2023-08-30T01:36:57;4.63;;;2.20;;
30505;SDS011;17292;51.600;4.994;2023-08-30T01:39:24;5.65;;;2.25;;
30505;SDS011;17292;51.600;4.994;2023-08-30T01:41:50;2.72;;;2.05;;
30505;SDS011;17292;51.600;4.994;2023-08-30T01:44:23;3.50;;;2.22;;
30505;SDS011;17292;51.600;4.994;2023-08-30T01:46:50;3.35;;;2.17;;
30505;SDS011;17292;51.600;4.994;2023-08-30T01:49:16;6.10;;;2.60;;
30505;SDS011;17292;51.600;4.994;2023-08-30T01:51:43;5.32;;;1.90;;
30505;SDS011;17292;51.600;4.994;2023-08-30T01:54:09;5.13;;;2.40;;
30505;SDS011;17292;51.600;4.994;2023-08-30T01:56:38;4.50;;;2.25;;
30505;SDS011;17292;51.600;4.994;2023-08-30T01:59:04;3.13;;;2.08;;
30505;SDS011;17292;51.600;4.994;2023-08-30T02:01:30;4.88;;;2.35;;
30505;SDS011;17292;51.600;4.994;2023-08-30T02:03:56;4.68;;;2.28;;
30505;SDS011;17292;51.600;4.994;2023-08-30T02:06:26;3.28;;;2.40;;
30505;SDS011;17292;51.600;4.994;2023-08-30T02:08:55;4.13;;;2.03;;
30505;SDS011;17292;51.600;4.994;2023-08-30T02:11:26;2.70;;;2.13;;
30505;SDS011;17292;51.600;4.994;2023-08-30T02:13:52;2.53;;;1.98;;
30505;SDS011;17292;51.600;4.994;2023-08-30T02:16:19;3.25;;;2.33;;
30505;SDS011;17292;51.600;4.994;2023-08-30T02:18:46;2.20;;;1.83;;
30505;SDS011;17292;51.600;4.994;2023-08-30T02:21:12;2.47;;;1.67;;
30505;SDS011;17292;51.600;4.994;2023-08-30T02:23:38;4.15;;;2.20;;
30505;SDS011;17292;51.600;4.994;2023-08-30T02:26:05;3.83;;;2.00;;
30505;SDS011;17292;51.600;4.994;2023-08-30T02:28:31;3.72;;;2.30;;
30505;SDS011;17292;51.600;4.994;2023-08-30T02:30:57;3.67;;;2.20;;
30505;SDS011;17292;51.600;4.994;2023-08-30T02:33:23;3.00;;;2.17;;
30505;SDS011;17292;51.600;4.994;2023-08-30T02:35:49;6.93;;;2.35;;
30505;SDS011;17292;51.600;4.994;2023-08-30T02:38:15;5.53;;;2.60;;
30505;SDS011;17292;51.600;4.994;2023-08-30T02:40:42;4.80;;;2.20;;
30505;SDS011;17292;51.600;4.994;2023-08-30T02:43:08;5.05;;;2.53;;
30505;SDS011;17292;51.600;4.994;2023-08-30T02:45:35;3.75;;;2.45;;
30505;SDS011;17292;51.600;4.994;2023-08-30T02:48:01;3.63;;;2.30;;
30505;SDS011;17292;51.600;4.994;2023-08-30T02:50:27;2.75;;;2.13;;
30505;SDS011;17292;51.600;4.994;2023-08-30T02:52:54;5.00;;;2.35;;
30505;SDS011;17292;51.600;4.994;2023-08-30T02:55:20;4.95;;;2.42;;
30505;SDS011;17292;51.600;4.994;2023-08-30T02:57:46;3.85;;;2.25;;
30505;SDS011;17292;51.600;4.994;2023-08-30T03:00:12;3.33;;;2.42;;
30505;SDS011;17292;51.600;4.994;2023-08-30T03:02:38;3.75;;;2.08;;
30505;SDS011;17292;51.600;4.994;2023-08-30T03:05:05;3.63;;;2.20;;
30505;SDS011;17292;51.600;4.994;2023-08-30T03:07:31;5.25;;;2.40;;
30505;SDS011;17292;51.600;4.994;2023-08-30T03:09:57;2.60;;;2.03;;
30505;SDS011;17292;51.600;4.994;2023-08-30T03:12:23;3.22;;;2.40;;
30505;SDS011;17292;51.600;4.994;2023-08-30T03:14:49;4.20;;;2.38;;
30505;SDS011;17292;51.600;4.994;2023-08-30T03:17:16;4.82;;;2.72;;
30505;SDS011;17292;51.600;4.994;2023-08-30T03:19:42;5.88;;;2.38;;
30505;SDS011;17292;51.600;4.994;2023-08-30T03:22:08;4.18;;;2.17;;
30505;SDS011;17292;51.600;4.994;2023-08-30T03:24:34;4.00;;;2.38;;
30505;SDS011;17292;51.600;4.994;2023-08-30T03:27:00;5.40;;;2.00;;
30505;SDS011;17292;51.600;4.994;2023-08-30T03:29:26;3.40;;;2.13;;
30505;SDS011;17292;51.600;4.994;2023-08-30T03:31:53;3.15;;;2.00;;
30505;SDS011;17292;51.600;4.994;2023-08-30T03:34:19;4.20;;;2.10;;
30505;SDS011;17292;51.600;4.994;2023-08-30T03:36:45;5.28;;;2.40;;
30505;SDS011;17292;51.600;4.994;2023-08-30T03:39:15;4.30;;;2.17;;
30505;SDS011;17292;51.600;4.994;2023-08-30T03:41:42;4.05;;;2.15;;
30505;SDS011;17292;51.600;4.994;2023-08-30T03:44:08;4.43;;;2.10;;
30505;SDS011;17292;51.600;4.994;2023-08-30T03:46:34;3.05;;;2.38;;
30505;SDS011;17292;51.600;4.994;2023-08-30T03:49:00;3.15;;;2.10;;
30505;SDS011;17292;51.600;4.994;2023-08-30T03:51:26;2.97;;;2.15;;
30505;SDS011;17292;51.600;4.994;2023-08-30T03:53:52;6.53;;;2.40;;
30505;SDS011;17292;51.600;4.994;2023-08-30T03:56:19;4.50;;;2.33;;
30505;SDS011;17292;51.600;4.994;2023-08-30T03:58:45;5.80;;;2.20;;
30505;SDS011;17292;51.600;4.994;2023-08-30T04:01:12;4.05;;;2.05;;
30505;SDS011;17292;51.600;4.994;2023-08-30T04:03:38;2.30;;;2.10;;
30505;SDS011;17292;51.600;4.994;2023-08-30T04:06:04;2.60;;;2.20;;
30505;SDS011;17292;51.600;4.994;2023-08-30T04:08:30;4.10;;;2.20;;
30505;SDS011;17292;51.600;4.994;2023-08-30T04:10:57;3.40;;;2.10;;
30505;SDS011;17292;51.600;4.994;2023-08-30T04:13:23;3.78;;;2.28;;
30505;SDS011;17292;51.600;4.994;2023-08-30T04:15:49;3.10;;;2.10;;
30505;SDS011;17292;51.600;4.994;2023-08-30T04:18:15;3.50;;;2.00;;
30505;SDS011;17292;51.600;4.994;2023-08-30T04:20:45;4.03;;;2.38;;
30505;SDS011;17292;51.600;4.994;2023-08-30T04:23:12;5.45;;;2.58;;
30505;SDS011;17292;51.600;4.994;2023-08-30T04:25:38;4.43;;;2.42;;
30505;SDS011;17292;51.600;4.994;2023-08-30T04:28:04;2.30;;;2.10;;
30505;SDS011;17292;51.600;4.994;2023-08-30T04:30:30;4.50;;;2.45;;
30505;SDS011;17292;51.600;4.994;2023-08-30T04:32:56;4.35;;;2.30;;
30505;SDS011;17292;51.600;4.994;2023-08-30T04:35:22;2.75;;;1.90;;
30505;SDS011;17292;51.600;4.994;2023-08-30T04:37:48;4.78;;;2.38;;
30505;SDS011;17292;51.600;4.994;2023-08-30T04:40:15;2.13;;;1.88;;
30505;SDS011;17292;51.600;4.994;2023-08-30T04:42:41;2.17;;;1.98;;
30505;SDS011;17292;51.600;4.994;2023-08-30T04:45:07;3.00;;;2.08;;
30505;SDS011;17292;51.600;4.994;2023-08-30T04:47:34;2.10;;;1.90;;
30505;SDS011;17292;51.600;4.994;2023-08-30T04:50:01;2.40;;;2.10;;
30505;SDS011;17292;51.600;4.994;2023-08-30T04:52:27;3.95;;;2.00;;
30505;SDS011;17292;51.600;4.994;2023-08-30T04:54:53;3.85;;;2.22;;
30505;SDS011;17292;51.600;4.994;2023-08-30T04:57:19;5.22;;;2.17;;
30505;SDS011;17292;51.600;4.994;2023-08-30T04:59:45;3.38;;;2.28;;
30505;SDS011;17292;51.600;4.994;2023-08-30T05:02:12;3.63;;;1.95;;
30505;SDS011;17292;51.600;4.994;2023-08-30T05:04:38;3.72;;;1.95;;
30505;SDS011;17292;51.600;4.994;2023-08-30T05:07:04;4.35;;;2.28;;
30505;SDS011;17292;51.600;4.994;2023-08-30T05:09:30;4.60;;;2.55;;
30505;SDS011;17292;51.600;4.994;2023-08-30T05:11:57;6.93;;;2.53;;
30505;SDS011;17292;51.600;4.994;2023-08-30T05:14:24;4.82;;;2.20;;
30505;SDS011;17292;51.600;4.994;2023-08-30T05:16:50;4.00;;;2.22;;
30505;SDS011;17292;51.600;4.994;2023-08-30T05:19:16;4.43;;;1.80;;
30505;SDS011;17292;51.600;4.994;2023-08-30T05:21:42;3.92;;;2.40;;
30505;SDS011;17292;51.600;4.994;2023-08-30T05:24:09;2.17;;;1.98;;
30505;SDS011;17292;51.600;4.994;2023-08-30T05:26:35;9.40;;;2.42;;
30505;SDS011;17292;51.600;4.994;2023-08-30T05:29:02;8.10;;;2.92;;
30505;SDS011;17292;51.600;4.994;2023-08-30T05:31:28;5.53;;;2.60;;
30505;SDS011;17292;51.600;4.994;2023-08-30T05:33:54;5.30;;;2.88;;
30505;SDS011;17292;51.600;4.994;2023-08-30T05:36:20;4.95;;;2.83;;
30505;SDS011;17292;51.600;4.994;2023-08-30T05:38:46;4.90;;;2.70;;
30505;SDS011;17292;51.600;4.994;2023-08-30T05:41:13;5.15;;;2.85;;
30505;SDS011;17292;51.600;4.994;2023-08-30T05:43:39;7.88;;;2.72;;
30505;SDS011;17292;51.600;4.994;2023-08-30T05:46:05;5.90;;;2.40;;
30505;SDS011;17292;51.600;4.994;2023-08-30T05:51:03;10.30;;;2.90;;
30505;SDS011;17292;51.600;4.994;2023-08-30T05:53:29;5.78;;;2.35;;
30505;SDS011;17292;51.600;4.994;2023-08-30T05:55:55;3.65;;;2.17;;
30505;SDS011;17292;51.600;4.994;2023-08-30T05:58:21;7.55;;;2.47;;
30505;SDS011;17292;51.600;4.994;2023-08-30T06:00:47;5.43;;;2.25;;
30505;SDS011;17292;51.600;4.994;2023-08-30T06:03:13;5.75;;;2.28;;
30505;SDS011;17292;51.600;4.994;2023-08-30T06:05:40;5.00;;;2.42;;
30505;SDS011;17292;51.600;4.994;2023-08-30T06:08:06;3.33;;;2.03;;
30505;SDS011;17292;51.600;4.994;2023-08-30T06:10:33;3.95;;;2.20;;
30505;SDS011;17292;51.600;4.994;2023-08-30T06:12:59;7.10;;;1.90;;
30505;SDS011;17292;51.600;4.994;2023-08-30T06:15:25;3.13;;;2.22;;
30505;SDS011;17292;51.600;4.994;2023-08-30T06:17:51;6.05;;;1.90;;
30505;SDS011;17292;51.600;4.994;2023-08-30T06:20:18;5.63;;;2.25;;
30505;SDS011;17292;51.600;4.994;2023-08-30T06:22:44;3.13;;;2.00;;
30505;SDS011;17292;51.600;4.994;2023-08-30T06:25:10;4.57;;;2.00;;
30505;SDS011;17292;51.600;4.994;2023-08-30T06:27:41;6.28;;;2.22;;
30505;SDS011;17292;51.600;4.994;2023-08-30T06:30:08;2.50;;;1.85;;
30505;SDS011;17292;51.600;4.994;2023-08-30T06:32:35;2.83;;;2.17;;
30505;SDS011;17292;51.600;4.994;2023-08-30T06:35:01;7.05;;;2.30;;
30505;SDS011;17292;51.600;4.994;2023-08-30T06:37:27;6.88;;;1.95;;
30505;SDS011;17292;51.600;4.994;2023-08-30T06:39:54;4.85;;;1.88;;
30505;SDS011;17292;51.600;4.994;2023-08-30T06:42:20;8.43;;;2.47;;
30505;SDS011;17292;51.600;4.994;2023-08-30T06:44:46;4.80;;;2.25;;
30505;SDS011;17292;51.600;4.994;2023-08-30T06:47:12;6.20;;;2.42;;
30505;SDS011;17292;51.600;4.994;2023-08-30T06:49:38;6.07;;;2.33;;
30505;SDS011;17292;51.600;4.994;2023-08-30T06:52:04;5.82;;;2.05;;
30505;SDS011;17292;51.600;4.994;2023-08-30T06:54:34;5.20;;;2.47;;
30505;SDS011;17292;51.600;4.994;2023-08-30T06:57:01;8.77;;;2.67;;
30505;SDS011;17292;51.600;4.994;2023-08-30T06:59:28;4.32;;;2.22;;
30505;SDS011;17292;51.600;4.994;2023-08-30T07:01:54;10.75;;;2.55;;
30505;SDS011;17292;51.600;4.994;2023-08-30T07:04:20;5.68;;;1.95;;
30505;SDS011;17292;51.600;4.994;2023-08-30T07:06:46;6.43;;;2.00;;
30505;SDS011;17292;51.600;4.994;2023-08-30T07:09:13;8.25;;;2.10;;
30505;SDS011;17292;51.600;4.994;2023-08-30T07:11:39;4.18;;;2.03;;
30505;SDS011;17292;51.600;4.994;2023-08-30T07:14:09;10.25;;;2.38;;
30505;SDS011;17292;51.600;4.994;2023-08-30T07:16:35;6.13;;;2.25;;
30505;SDS011;17292;51.600;4.994;2023-08-30T07:19:01;4.90;;;2.03;;
30505;SDS011;17292;51.600;4.994;2023-08-30T07:21:28;4.85;;;2.40;;
30505;SDS011;17292;51.600;4.994;2023-08-30T07:23:54;8.45;;;2.40;;
30505;SDS011;17292;51.600;4.994;2023-08-30T07:26:20;5.38;;;2.10;;
30505;SDS011;17292;51.600;4.994;2023-08-30T07:28:46;8.23;;;2.55;;
30505;SDS011;17292;51.600;4.994;2023-08-30T07:31:12;9.68;;;2.90;;
30505;SDS011;17292;51.600;4.994;2023-08-30T07:33:40;4.18;;;2.30;;
30505;SDS011;17292;51.600;4.994;2023-08-30T07:36:07;8.68;;;2.30;;
30505;SDS011;17292;51.600;4.994;2023-08-30T07:38:34;7.03;;;2.30;;
30505;SDS011;17292;51.600;4.994;2023-08-30T07:41:00;7.70;;;2.53;;
30505;SDS011;17292;51.600;4.994;2023-08-30T07:43:26;7.45;;;2.45;;
30505;SDS011;17292;51.600;4.994;2023-08-30T07:45:52;9.13;;;2.75;;
30505;SDS011;17292;51.600;4.994;2023-08-30T07:48:19;10.27;;;2.60;;
30505;SDS011;17292;51.600;4.994;2023-08-30T07:50:45;7.63;;;2.17;;
30505;SDS011;17292;51.600;4.994;2023-08-30T07:53:11;7.65;;;2.40;;
30505;SDS011;17292;51.600;4.994;2023-08-30T07:55:37;7.35;;;2.10;;
30505;SDS011;17292;51.600;4.994;2023-08-30T07:58:03;5.78;;;2.15;;
30505;SDS011;17292;51.600;4.994;2023-08-30T08:00:30;3.45;;;2.15;;
30505;SDS011;17292;51.600;4.994;2023-08-30T08:02:56;4.68;;;2.38;;
30505;SDS011;17292;51.600;4.994;2023-08-30T08:05:22;13.07;;;2.15;;
30505;SDS011;17292;51.600;4.994;2023-08-30T08:07:51;8.82;;;2.40;;
30505;SDS011;17292;51.600;4.994;2023-08-30T08:10:17;6.53;;;1.95;;
30505;SDS011;17292;51.600;4.994;2023-08-30T08:12:43;5.85;;;2.15;;
30505;SDS011;17292;51.600;4.994;2023-08-30T08:15:10;8.60;;;2.05;;
30505;SDS011;17292;51.600;4.994;2023-08-30T08:17:36;5.07;;;2.35;;
30505;SDS011;17292;51.600;4.994;2023-08-30T08:20:04;6.93;;;2.20;;
30505;SDS011;17292;51.600;4.994;2023-08-30T08:22:30;5.93;;;2.17;;
30505;SDS011;17292;51.600;4.994;2023-08-30T08:24:57;10.13;;;2.58;;
30505;SDS011;17292;51.600;4.994;2023-08-30T08:27:26;7.05;;;2.17;;
30505;SDS011;17292;51.600;4.994;2023-08-30T08:29:52;7.20;;;2.40;;
30505;SDS011;17292;51.600;4.994;2023-08-30T08:32:18;4.72;;;2.35;;
30505;SDS011;17292;51.600;4.994;2023-08-30T08:34:45;5.97;;;2.30;;
30505;SDS011;17292;51.600;4.994;2023-08-30T08:37:11;6.45;;;2.47;;
30505;SDS011;17292;51.600;4.994;2023-08-30T08:39:38;8.27;;;2.08;;
30505;SDS011;17292;51.600;4.994;2023-08-30T08:42:04;6.93;;;2.30;;
30505;SDS011;17292;51.600;4.994;2023-08-30T08:44:31;9.25;;;2.83;;
30505;SDS011;17292;51.600;4.994;2023-08-30T08:46:58;6.32;;;2.25;;
30505;SDS011;17292;51.600;4.994;2023-08-30T08:49:25;9.80;;;2.90;;
30505;SDS011;17292;51.600;4.994;2023-08-30T08:51:55;4.18;;;2.63;;
30505;SDS011;17292;51.600;4.994;2023-08-30T08:54:22;11.77;;;2.60;;
30505;SDS011;17292;51.600;4.994;2023-08-30T08:56:48;7.93;;;2.42;;
30505;SDS011;17292;51.600;4.994;2023-08-30T08:59:15;7.25;;;2.70;;
30505;SDS011;17292;51.600;4.994;2023-08-30T09:01:41;8.38;;;2.47;;
30505;SDS011;17292;51.600;4.994;2023-08-30T09:04:08;13.65;;;3.20;;
30505;SDS011;17292;51.600;4.994;2023-08-30T09:06:35;15.07;;;2.65;;
30505;SDS011;17292;51.600;4.994;2023-08-30T09:09:02;7.85;;;2.42;;
30505;SDS011;17292;51.600;4.994;2023-08-30T09:11:29;5.22;;;2.50;;
30505;SDS011;17292;51.600;4.994;2023-08-30T09:13:55;8.82;;;2.60;;
30505;SDS011;17292;51.600;4.994;2023-08-30T09:16:21;12.23;;;2.65;;
30505;SDS011;17292;51.600;4.994;2023-08-30T09:18:58;7.95;;;2.08;;
30505;SDS011;17292;51.600;4.994;2023-08-30T09:21:24;7.45;;;2.95;;
30505;SDS011;17292;51.600;4.994;2023-08-30T09:23:56;7.60;;;2.70;;
30505;SDS011;17292;51.600;4.994;2023-08-30T09:26:23;5.28;;;2.55;;
30505;SDS011;17292;51.600;4.994;2023-08-30T09:28:49;12.30;;;2.80;;
30505;SDS011;17292;51.600;4.994;2023-08-30T09:31:18;14.35;;;2.70;;
30505;SDS011;17292;51.600;4.994;2023-08-30T09:33:45;10.10;;;3.20;;
30505;SDS011;17292;51.600;4.994;2023-08-30T09:36:14;8.57;;;3.00;;
30505;SDS011;17292;51.600;4.994;2023-08-30T09:38:41;14.00;;;2.65;;
30505;SDS011;17292;51.600;4.994;2023-08-30T09:41:07;10.38;;;2.63;;
30505;SDS011;17292;51.600;4.994;2023-08-30T09:43:33;7.50;;;2.72;;
30505;SDS011;17292;51.600;4.994;2023-08-30T09:46:02;5.72;;;2.85;;
30505;SDS011;17292;51.600;4.994;2023-08-30T09:48:30;12.98;;;3.13;;
30505;SDS011;17292;51.600;4.994;2023-08-30T09:50:58;8.30;;;3.17;;
30505;SDS011;17292;51.600;4.994;2023-08-30T09:53:25;7.25;;;3.15;;
30505;SDS011;17292;51.600;4.994;2023-08-30T09:55:53;9.55;;;3.22;;
30505;SDS011;17292;51.600;4.994;2023-08-30T09:58:20;5.00;;;2.40;;
30505;SDS011;17292;51.600;4.994;2023-08-30T10:00:50;7.15;;;2.88;;
30505;SDS011;17292;51.600;4.994;2023-08-30T10:03:17;7.90;;;2.50;;
30505;SDS011;17292;51.600;4.994;2023-08-30T10:05:44;10.50;;;2.53;;
30505;SDS011;17292;51.600;4.994;2023-08-30T10:08:10;10.45;;;2.70;;
30505;SDS011;17292;51.600;4.994;2023-08-30T10:10:37;8.98;;;2.88;;
30505;SDS011;17292;51.600;4.994;2023-08-30T10:13:04;6.30;;;2.53;;
30505;SDS011;17292;51.600;4.994;2023-08-30T10:15:32;7.45;;;2.70;;
30505;SDS011;17292;51.600;4.994;2023-08-30T10:17:59;6.05;;;2.63;;
30505;SDS011;17292;51.600;4.994;2023-08-30T10:20:26;7.30;;;2.83;;
30505;SDS011;17292;51.600;4.994;2023-08-30T10:22:53;13.15;;;4.28;;
30505;SDS011;17292;51.600;4.994;2023-08-30T10:25:21;9.55;;;3.33;;
30505;SDS011;17292;51.600;4.994;2023-08-30T10:27:48;12.00;;;3.22;;
30505;SDS011;17292;51.600;4.994;2023-08-30T10:30:16;8.65;;;2.95;;
30505;SDS011;17292;51.600;4.994;2023-08-30T10:32:43;7.15;;;3.03;;
30505;SDS011;17292;51.600;4.994;2023-08-30T10:35:10;8.32;;;2.92;;
30505;SDS011;17292;51.600;4.994;2023-08-30T10:37:37;8.95;;;2.63;;
30505;SDS011;17292;51.600;4.994;2023-08-30T10:40:04;9.88;;;2.63;;
30505;SDS011;17292;51.600;4.994;2023-08-30T10:42:31;7.05;;;2.67;;
30505;SDS011;17292;51.600;4.994;2023-08-30T10:44:58;7.35;;;2.83;;
30505;SDS011;17292;51.600;4.994;2023-08-30T10:47:26;12.00;;;2.92;;
30505;SDS011;17292;51.600;4.994;2023-08-30T10:49:54;7.55;;;2.80;;
30505;SDS011;17292;51.600;4.994;2023-08-30T10:52:21;7.82;;;2.80;;
30505;SDS011;17292;51.600;4.994;2023-08-30T10:54:47;6.35;;;2.70;;
30505;SDS011;17292;51.600;4.994;2023-08-30T10:57:14;9.15;;;2.80;;
30505;SDS011;17292;51.600;4.994;2023-08-30T11:00:03;11.75;;;3.17;;
30505;SDS011;17292;51.600;4.994;2023-08-30T11:02:29;7.88;;;2.80;;
30505;SDS011;17292;51.600;4.994;2023-08-30T11:04:57;7.00;;;2.72;;
30505;SDS011;17292;51.600;4.994;2023-08-30T11:07:24;6.18;;;2.60;;
30505;SDS011;17292;51.600;4.994;2023-08-30T11:09:53;5.28;;;2.75;;
30505;SDS011;17292;51.600;4.994;2023-08-30T11:12:20;10.52;;;2.85;;
30505;SDS011;17292;51.600;4.994;2023-08-30T11:14:51;6.32;;;2.78;;
30505;SDS011;17292;51.600;4.994;2023-08-30T11:17:18;7.70;;;2.72;;
30505;SDS011;17292;51.600;4.994;2023-08-30T11:19:44;8.77;;;2.70;;
30505;SDS011;17292;51.600;4.994;2023-08-30T11:22:14;11.05;;;3.20;;
30505;SDS011;17292;51.600;4.994;2023-08-30T11:24:43;11.13;;;3.17;;
30505;SDS011;17292;51.600;4.994;2023-08-30T11:27:11;11.88;;;3.17;;
30505;SDS011;17292;51.600;4.994;2023-08-30T11:29:40;9.93;;;2.47;;
30505;SDS011;17292;51.600;4.994;2023-08-30T11:32:07;6.88;;;3.25;;
30505;SDS011;17292;51.600;4.994;2023-08-30T11:34:34;10.57;;;2.95;;
30505;SDS011;17292;51.600;4.994;2023-08-30T11:37:00;8.70;;;2.75;;
30505;SDS011;17292;51.600;4.994;2023-08-30T11:39:29;10.57;;;2.83;;
30505;SDS011;17292;51.600;4.994;2023-08-30T11:41:56;9.05;;;3.00;;
30505;SDS011;17292;51.600;4.994;2023-08-30T11:44:25;9.73;;;3.13;;
30505;SDS011;17292;51.600;4.994;2023-08-30T11:49:20;6.53;;;2.95;;
30505;SDS011;17292;51.600;4.994;2023-08-30T11:51:46;6.43;;;2.78;;
30505;SDS011;17292;51.600;4.994;2023-08-30T11:54:12;6.63;;;2.63;;
30505;SDS011;17292;51.600;4.994;2023-08-30T11:56:38;8.70;;;2.85;;
30505;SDS011;17292;51.600;4.994;2023-08-30T11:59:05;4.25;;;2.22;;
30505;SDS011;17292;51.600;4.994;2023-08-30T12:01:32;7.30;;;2.80;;
30505;SDS011;17292;51.600;4.994;2023-08-30T12:04:08;18.50;;;3.30;;
30505;SDS011;17292;51.600;4.994;2023-08-30T12:06:34;5.20;;;2.85;;
30505;SDS011;17292;51.600;4.994;2023-08-30T12:09:00;11.95;;;2.72;;
30505;SDS011;17292;51.600;4.994;2023-08-30T12:11:31;8.50;;;2.65;;
30505;SDS011;17292;51.600;4.994;2023-08-30T12:14:03;10.45;;;3.05;;
30505;SDS011;17292;51.600;4.994;2023-08-30T12:16:30;10.85;;;2.90;;
30505;SDS011;17292;51.600;4.994;2023-08-30T12:18:56;11.40;;;3.08;;
30505;SDS011;17292;51.600;4.994;2023-08-30T12:21:38;10.38;;;2.90;;
30505;SDS011;17292;51.600;4.994;2023-08-30T12:24:05;7.90;;;2.72;;
30505;SDS011;17292;51.600;4.994;2023-08-30T12:26:31;8.20;;;3.13;;
30505;SDS011;17292;51.600;4.994;2023-08-30T12:28:58;7.18;;;3.03;;
30505;SDS011;17292;51.600;4.994;2023-08-30T12:31:24;12.23;;;3.10;;
30505;SDS011;17292;51.600;4.994;2023-08-30T12:33:53;6.65;;;2.70;;
30505;SDS011;17292;51.600;4.994;2023-08-30T12:36:20;13.73;;;3.08;;
30505;SDS011;17292;51.600;4.994;2023-08-30T12:38:46;12.77;;;3.30;;
30505;SDS011;17292;51.600;4.994;2023-08-30T12:41:12;8.35;;;2.63;;
30505;SDS011;17292;51.600;4.994;2023-08-30T12:43:38;13.20;;;3.38;;
30505;SDS011;17292;51.600;4.994;2023-08-30T12:46:04;9.65;;;2.83;;
30505;SDS011;17292;51.600;4.994;2023-08-30T12:48:32;9.07;;;3.25;;
30505;SDS011;17292;51.600;4.994;2023-08-30T12:50:58;14.15;;;3.10;;
30505;SDS011;17292;51.600;4.994;2023-08-30T12:53:24;9.00;;;2.85;;
30505;SDS011;17292;51.600;4.994;2023-08-30T12:55:51;11.32;;;2.90;;
30505;SDS011;17292;51.600;4.994;2023-08-30T12:58:17;10.95;;;3.10;;
30505;SDS011;17292;51.600;4.994;2023-08-30T13:00:43;9.43;;;2.83;;
30505;SDS011;17292;51.600;4.994;2023-08-30T13:03:09;10.73;;;2.72;;
30505;SDS011;17292;51.600;4.994;2023-08-30T13:05:35;11.98;;;3.05;;
30505;SDS011;17292;51.600;4.994;2023-08-30T13:08:01;8.90;;;3.17;;
30505;SDS011;17292;51.600;4.994;2023-08-30T13:10:28;8.73;;;2.97;;
30505;SDS011;17292;51.600;4.994;2023-08-30T13:12:54;8.02;;;2.83;;
30505;SDS011;17292;51.600;4.994;2023-08-30T13:15:20;8.23;;;2.60;;
30505;SDS011;17292;51.600;4.994;2023-08-30T13:17:47;16.13;;;3.00;;
30505;SDS011;17292;51.600;4.994;2023-08-30T13:20:13;13.60;;;3.05;;
30505;SDS011;17292;51.600;4.994;2023-08-30T13:22:39;8.73;;;3.13;;
30505;SDS011;17292;51.600;4.994;2023-08-30T13:25:05;10.35;;;2.78;;
30505;SDS011;17292;51.600;4.994;2023-08-30T13:27:34;14.07;;;3.20;;
30505;SDS011;17292;51.600;4.994;2023-08-30T13:30:00;9.18;;;3.17;;
30505;SDS011;17292;51.600;4.994;2023-08-30T13:32:27;11.55;;;3.42;;
30505;SDS011;17292;51.600;4.994;2023-08-30T13:34:53;15.95;;;3.00;;
30505;SDS011;17292;51.600;4.994;2023-08-30T13:37:20;12.77;;;2.90;;
30505;SDS011;17292;51.600;4.994;2023-08-30T13:39:48;16.65;;;2.92;;
30505;SDS011;17292;51.600;4.994;2023-08-30T13:42:14;13.88;;;2.60;;
30505;SDS011;17292;51.600;4.994;2023-08-30T13:44:41;15.60;;;2.50;;
30505;SDS011;17292;51.600;4.994;2023-08-30T13:47:08;10.85;;;2.85;;
30505;SDS011;17292;51.600;4.994;2023-08-30T13:49:35;13.30;;;2.83;;
30505;SDS011;17292;51.600;4.994;2023-08-30T13:52:02;13.20;;;2.72;;
30505;SDS011;17292;51.600;4.994;2023-08-30T13:54:28;10.00;;;2.83;;
30505;SDS011;17292;51.600;4.994;2023-08-30T13:56:57;14.10;;;2.63;;
30505;SDS011;17292;51.600;4.994;2023-08-30T13:59:23;8.55;;;2.58;;
30505;SDS011;17292;51.600;4.994;2023-08-30T14:01:50;9.13;;;2.88;;
30505;SDS011;17292;51.600;4.994;2023-08-30T14:04:16;12.68;;;3.08;;
30505;SDS011;17292;51.600;4.994;2023-08-30T14:06:42;11.43;;;3.38;;
30505;SDS011;17292;51.600;4.994;2023-08-30T14:09:08;9.23;;;2.63;;
30505;SDS011;17292;51.600;4.994;2023-08-30T14:11:35;12.18;;;3.35;;
30505;SDS011;17292;51.600;4.994;2023-08-30T14:14:03;10.18;;;2.60;;
30505;SDS011;17292;51.600;4.994;2023-08-30T14:16:29;8.27;;;2.75;;
30505;SDS011;17292;51.600;4.994;2023-08-30T14:18:55;6.75;;;2.17;;
30505;SDS011;17292;51.600;4.994;2023-08-30T14:21:25;5.18;;;2.55;;
30505;SDS011;17292;51.600;4.994;2023-08-30T14:23:52;8.48;;;2.80;;
30505;SDS011;17292;51.600;4.994;2023-08-30T14:26:19;7.28;;;2.50;;
30505;SDS011;17292;51.600;4.994;2023-08-30T14:28:45;5.35;;;2.50;;
30505;SDS011;17292;51.600;4.994;2023-08-30T14:31:11;8.63;;;2.50;;
30505;SDS011;17292;51.600;4.994;2023-08-30T14:33:41;7.45;;;2.13;;
30505;SDS011;17292;51.600;4.994;2023-08-30T14:36:09;6.57;;;2.10;;
30505;SDS011;17292;51.600;4.994;2023-08-30T14:38:36;7.88;;;2.22;;
30505;SDS011;17292;51.600;4.994;2023-08-30T14:41:02;9.43;;;2.30;;
30505;SDS011;17292;51.600;4.994;2023-08-30T14:43:29;7.35;;;2.15;;
30505;SDS011;17292;51.600;4.994;2023-08-30T14:46:13;7.95;;;1.80;;
30505;SDS011;17292;51.600;4.994;2023-08-30T14:48:41;8.85;;;2.40;;
30505;SDS011;17292;51.600;4.994;2023-08-30T14:51:07;6.40;;;2.40;;
30505;SDS011;17292;51.600;4.994;2023-08-30T14:53:33;8.60;;;2.17;;
30505;SDS011;17292;51.600;4.994;2023-08-30T14:55:59;10.45;;;2.22;;